Time;durP1;ratioP1;P1;durP2;ratioP2;P2;SDS_P1;SDS_P2;PMS_P1;PMS_P2;Temp;Humidity;BMP_temperature;BMP_pressure;BME280_temperature;BME280_humidity;BME280_pressure;Samples;Min_cycle;Max_cycle;Signal;HPM_P1;HPM_P2
2023/06/26 00:00:22;;;;;;;4.70;3.47;;;;;;;;;;5035981;28;20119;-66
2023/06/26 00:02:47;;;;;;;5.10;3.90;;;;;;;;;;5041217;28;20025;-66
2023/06/26 00:05:13;;;;;;;4.40;3.42;;;;;;;;;;5035606;28;20028;-66
2023/06/26 00:07:39;;;;;;;4.40;3.83;;;;;;;;;;5037467;28;20025;-66
2023/06/26 00:10:05;;;;;;;5.30;4.35;;;;;;;;;;5038869;28;20025;-66
2023/06/26 00:12:31;;;;;;;6.32;4.20;;;;;;;;;;5038476;28;20044;-66
2023/06/26 00:14:56;;;;;;;5.03;3.78;;;;;;;;;;5043629;28;20021;-66
2023/06/26 00:17:22;;;;;;;5.70;3.90;;;;;;;;;;5044453;28;20036;-66
2023/06/26 00:19:48;;;;;;;4.95;3.90;;;;;;;;;;5042079;28;20025;-66
2023/06/26 00:22:13;;;;;;;5.90;4.28;;;;;;;;;;5041883;28;20020;-66
2023/06/26 00:24:38;;;;;;;4.85;3.53;;;;;;;;;;5042067;28;20476;-66
2023/06/26 00:27:04;;;;;;;6.07;4.85;;;;;;;;;;5045472;28;20036;-66
2023/06/26 00:29:29;;;;;;;7.22;4.28;;;;;;;;;;5036199;28;20454;-66
2023/06/26 00:31:55;;;;;;;6.22;4.80;;;;;;;;;;5044964;28;20040;-66
2023/06/26 00:34:20;;;;;;;4.63;3.75;;;;;;;;;;5041795;28;20046;-66
2023/06/26 00:36:46;;;;;;;5.78;4.65;;;;;;;;;;5022812;28;20021;-66
2023/06/26 00:39:11;;;;;;;8.13;5.00;;;;;;;;;;5038113;28;20063;-66
2023/06/26 00:41:37;;;;;;;5.55;4.50;;;;;;;;;;5036657;28;20025;-66
2023/06/26 00:44:04;;;;;;;6.60;4.53;;;;;;;;;;5016403;28;20047;-66
2023/06/26 00:46:29;;;;;;;6.35;4.90;;;;;;;;;;5042219;28;20036;-66
2023/06/26 00:48:56;;;;;;;7.03;4.70;;;;;;;;;;5022417;28;20029;-66
2023/06/26 00:51:21;;;;;;;5.72;4.60;;;;;;;;;;5039513;28;20021;-66
2023/06/26 00:53:48;;;;;;;5.88;4.78;;;;;;;;;;5039227;28;20557;-66
2023/06/26 00:56:15;;;;;;;6.05;4.45;;;;;;;;;;5043250;28;20496;-66
2023/06/26 00:58:40;;;;;;;6.03;4.72;;;;;;;;;;5040491;28;20515;-66
2023/06/26 01:01:08;;;;;;;5.63;4.22;;;;;;;;;;5043854;28;20016;-66
2023/06/26 01:03:34;;;;;;;6.47;4.53;;;;;;;;;;5038618;28;20024;-66
2023/06/26 01:06:00;;;;;;;6.55;4.90;;;;;;;;;;5038144;28;20025;-67
2023/06/26 01:08:26;;;;;;;6.32;4.32;;;;;;;;;;5038667;28;20028;-66
2023/06/26 01:10:52;;;;;;;5.40;4.43;;;;;;;;;;5035469;28;20049;-66
2023/06/26 01:13:18;;;;;;;5.75;3.92;;;;;;;;;;5058021;22;20076;-67
2023/06/26 01:15:43;;;;;;;5.00;4.22;;;;;;;;;;5039111;28;20117;-66
2023/06/26 01:18:09;;;;;;;5.45;4.35;;;;;;;;;;5038296;28;20024;-66
2023/06/26 01:20:37;;;;;;;5.63;3.97;;;;;;;;;;5035688;28;20992;-66
2023/06/26 01:23:20;;;;;;;5.65;4.32;;;;;;;;;;5039134;28;20028;-67
2023/06/26 01:26:07;;;;;;;5.60;4.40;;;;;;;;;;5043924;28;20096;-66
2023/06/26 01:28:34;;;;;;;6.15;4.65;;;;;;;;;;5038273;28;20021;-66
2023/06/26 01:31:00;;;;;;;6.40;4.50;;;;;;;;;;5043010;28;20510;-64
2023/06/26 01:33:27;;;;;;;7.32;4.95;;;;;;;;;;5047433;28;20040;-64
2023/06/26 01:35:52;;;;;;;6.57;5.55;;;;;;;;;;5042816;28;20041;-66
2023/06/26 01:38:20;;;;;;;6.47;5.40;;;;;;;;;;5033454;28;20043;-67
2023/06/26 01:40:46;;;;;;;5.82;4.93;;;;;;;;;;5042069;28;20025;-66
2023/06/26 01:43:17;;;;;;;7.85;5.75;;;;;;;;;;5044504;28;20090;-66
2023/06/26 01:45:43;;;;;;;;;;;;;;;;;;5042733;28;20059;-64
2023/06/26 01:48:11;;;;;;;6.57;4.57;;;;;;;;;;5043854;28;19913;-64
2023/06/26 01:50:38;;;;;;;7.85;6.53;;;;;;;;;;5038325;28;20037;-66
2023/06/26 01:53:17;;;;;;;5.53;4.82;;;;;;;;;;5049495;28;20564;-66
2023/06/26 01:56:00;;;;;;;7.28;5.30;;;;;;;;;;5043025;28;20039;-64
2023/06/26 01:58:27;;;;;;;6.03;5.15;;;;;;;;;;5041373;28;20017;-66
2023/06/26 02:00:53;;;;;;;7.43;5.90;;;;;;;;;;5044329;28;20120;-64
2023/06/26 02:03:19;;;;;;;6.20;5.28;;;;;;;;;;5040135;28;20072;-63
2023/06/26 02:05:45;;;;;;;5.93;5.05;;;;;;;;;;5034603;28;20028;-66
2023/06/26 02:08:13;;;;;;;6.90;5.57;;;;;;;;;;5038176;28;20021;-64
2023/06/26 02:10:38;;;;;;;6.78;5.18;;;;;;;;;;5049663;28;20028;-67
2023/06/26 02:13:04;;;;;;;5.90;5.20;;;;;;;;;;5045290;28;20033;-66
2023/06/26 02:15:29;;;;;;;10.65;5.50;;;;;;;;;;5022126;28;20021;-66
2023/06/26 02:17:54;;;;;;;8.25;5.70;;;;;;;;;;5041454;28;20469;-66
2023/06/26 02:20:20;;;;;;;6.45;5.55;;;;;;;;;;5042643;28;20122;-66
2023/06/26 02:22:45;;;;;;;6.88;5.68;;;;;;;;;;5046490;28;20464;-66
2023/06/26 02:25:12;;;;;;;8.13;6.03;;;;;;;;;;5039114;28;20021;-66
2023/06/26 02:27:37;;;;;;;7.97;5.53;;;;;;;;;;5039353;28;20104;-65
2023/06/26 02:30:03;;;;;;;7.55;5.45;;;;;;;;;;5038739;28;20104;-65
2023/06/26 02:32:28;;;;;;;8.18;6.00;;;;;;;;;;5035870;28;20420;-64
2023/06/26 02:34:54;;;;;;;6.03;4.65;;;;;;;;;;5043403;28;20025;-66
2023/06/26 02:37:19;;;;;;;6.80;4.85;;;;;;;;;;5041851;28;20037;-66
2023/06/26 02:39:45;;;;;;;7.82;5.07;;;;;;;;;;5039996;28;20570;-65
2023/06/26 02:42:10;;;;;;;6.70;5.10;;;;;;;;;;5036660;28;20048;-65
2023/06/26 02:44:36;;;;;;;6.25;5.13;;;;;;;;;;5052093;28;20526;-66
2023/06/26 02:47:01;;;;;;;6.68;4.97;;;;;;;;;;5035729;28;20025;-65
2023/06/26 02:49:26;;;;;;;5.43;4.82;;;;;;;;;;5035486;28;20048;-65
2023/06/26 02:51:52;;;;;;;5.40;4.50;;;;;;;;;;5036764;28;20783;-65
2023/06/26 02:54:17;;;;;;;6.32;4.68;;;;;;;;;;5048409;28;20044;-65
2023/06/26 02:56:42;;;;;;;5.57;4.35;;;;;;;;;;5042003;28;20104;-65
2023/06/26 02:59:08;;;;;;;5.90;4.60;;;;;;;;;;5029698;28;20072;-65
2023/06/26 03:01:33;;;;;;;6.70;4.82;;;;;;;;;;5038763;28;20021;-65
2023/06/26 03:04:00;;;;;;;5.57;4.63;;;;;;;;;;5042786;28;20021;-65
2023/06/26 03:06:26;;;;;;;5.50;4.28;;;;;;;;;;5047845;28;20700;-65
2023/06/26 03:08:53;;;;;;;5.85;4.53;;;;;;;;;;5038315;28;20051;-65
2023/06/26 03:11:18;;;;;;;5.60;4.38;;;;;;;;;;5037358;28;20087;-66
2023/06/26 03:13:43;;;;;;;6.75;5.45;;;;;;;;;;5029973;28;20072;-66
2023/06/26 03:16:09;;;;;;;6.45;5.00;;;;;;;;;;5041182;28;20022;-66
2023/06/26 03:18:34;;;;;;;7.32;4.82;;;;;;;;;;5046276;28;20024;-66
2023/06/26 03:20:59;;;;;;;6.93;4.93;;;;;;;;;;5046815;28;20032;-67
2023/06/26 03:23:25;;;;;;;5.38;4.47;;;;;;;;;;5020788;28;20427;-66
2023/06/26 03:25:50;;;;;;;7.28;4.57;;;;;;;;;;5035915;28;20108;-67
2023/06/26 03:28:16;;;;;;;6.15;4.72;;;;;;;;;;5052411;28;20029;-67
2023/06/26 03:30:41;;;;;;;7.82;5.10;;;;;;;;;;5038969;28;20041;-66
2023/06/26 03:33:07;;;;;;;6.50;4.55;;;;;;;;;;5036617;28;20037;-66
2023/06/26 03:35:32;;;;;;;5.30;4.13;;;;;;;;;;5040021;28;20052;-66
2023/06/26 03:37:58;;;;;;;5.35;3.90;;;;;;;;;;5041385;28;20044;-66
2023/06/26 03:40:24;;;;;;;6.32;4.38;;;;;;;;;;5050836;28;20017;-66
2023/06/26 03:42:49;;;;;;;5.03;3.90;;;;;;;;;;5039604;28;20726;-66
2023/06/26 03:45:14;;;;;;;5.68;4.07;;;;;;;;;;5035140;28;20419;-66
2023/06/26 03:47:40;;;;;;;6.22;4.60;;;;;;;;;;5043115;28;20091;-66
2023/06/26 03:50:06;;;;;;;5.93;4.93;;;;;;;;;;5051049;28;20469;-66
2023/06/26 03:52:31;;;;;;;5.65;4.43;;;;;;;;;;5048527;28;20025;-67
2023/06/26 03:55:00;;;;;;;6.80;4.60;;;;;;;;;;5033017;28;20381;-66
2023/06/26 03:57:25;;;;;;;5.43;3.88;;;;;;;;;;5039241;28;20048;-66
2023/06/26 03:59:52;;;;;;;5.43;3.80;;;;;;;;;;5046149;28;20021;-67
2023/06/26 04:02:17;;;;;;;5.68;3.72;;;;;;;;;;5035900;28;20032;-65
2023/06/26 04:04:42;;;;;;;6.30;4.28;;;;;;;;;;5035270;28;20026;-66
2023/06/26 04:07:08;;;;;;;5.90;4.45;;;;;;;;;;5039438;28;20020;-66
2023/06/26 04:09:33;;;;;;;7.45;5.60;;;;;;;;;;5039112;28;20055;-66
2023/06/26 04:11:58;;;;;;;6.10;4.10;;;;;;;;;;5046017;28;20024;-66
2023/06/26 04:14:24;;;;;;;5.97;4.75;;;;;;;;;;5042555;28;20111;-66
2023/06/26 04:16:49;;;;;;;6.07;4.82;;;;;;;;;;5036010;28;20025;-66
2023/06/26 04:19:15;;;;;;;6.50;5.20;;;;;;;;;;5039484;28;20361;-66
2023/06/26 04:21:40;;;;;;;7.32;4.35;;;;;;;;;;5029351;28;20017;-67
2023/06/26 04:24:05;;;;;;;6.90;4.80;;;;;;;;;;5041956;28;20661;-66
2023/06/26 04:26:31;;;;;;;6.07;4.53;;;;;;;;;;5043648;28;20020;-65
2023/06/26 04:28:56;;;;;;;7.00;4.70;;;;;;;;;;5033854;28;20021;-65
2023/06/26 04:31:22;;;;;;;8.82;4.53;;;;;;;;;;5024043;28;20037;-67
2023/06/26 04:33:50;;;;;;;8.25;4.35;;;;;;;;;;5046398;28;20020;-67
2023/06/26 04:36:19;;;;;;;7.72;3.88;;;;;;;;;;5027240;28;20746;-66
2023/06/26 04:38:44;;;;;;;6.25;4.47;;;;;;;;;;5038872;28;20052;-67
2023/06/26 04:41:10;;;;;;;7.88;4.75;;;;;;;;;;5035764;28;20474;-66
2023/06/26 04:43:35;;;;;;;9.98;4.85;;;;;;;;;;5042808;28;20735;-67
2023/06/26 04:46:02;;;;;;;9.25;5.03;;;;;;;;;;5045502;28;20423;-67
2023/06/26 04:48:28;;;;;;;9.25;4.53;;;;;;;;;;5032988;28;20078;-65
2023/06/26 04:50:55;;;;;;;5.60;4.10;;;;;;;;;;5037177;28;20021;-66
2023/06/26 04:53:22;;;;;;;6.22;4.22;;;;;;;;;;5035285;28;20108;-67
2023/06/26 04:55:51;;;;;;;12.05;4.78;;;;;;;;;;5055318;28;20131;-66
2023/06/26 04:58:17;;;;;;;5.82;4.75;;;;;;;;;;5045114;28;20021;-66
2023/06/26 05:00:43;;;;;;;8.23;5.35;;;;;;;;;;5036342;28;20087;-66
2023/06/26 05:03:10;;;;;;;7.60;4.63;;;;;;;;;;5044025;28;20039;-67
2023/06/26 05:05:35;;;;;;;8.90;4.82;;;;;;;;;;5049307;28;20020;-67
2023/06/26 05:08:22;;;;;;;7.85;4.78;;;;;;;;;;5052060;28;20502;-67
2023/06/26 05:10:47;;;;;;;7.10;4.88;;;;;;;;;;5038288;28;20032;-66
2023/06/26 05:13:18;;;;;;;8.52;4.78;;;;;;;;;;5037814;28;20025;-67
2023/06/26 05:15:44;;;;;;;;;;;;;;;;;;5043403;28;20030;-66
2023/06/26 05:18:10;;;;;;;6.60;4.82;;;;;;;;;;5053348;28;19913;-66
2023/06/26 05:20:36;;;;;;;7.07;4.75;;;;;;;;;;5042183;28;20018;-67
2023/06/26 05:23:02;;;;;;;5.18;3.67;;;;;;;;;;5038726;28;20020;-67
2023/06/26 05:25:29;;;;;;;6.85;5.70;;;;;;;;;;5044225;28;20021;-66
2023/06/26 05:27:56;;;;;;;7.45;5.50;;;;;;;;;;5048267;28;20558;-66
2023/06/26 05:30:21;;;;;;;7.80;4.75;;;;;;;;;;5051515;28;20121;-65
2023/06/26 05:32:48;;;;;;;6.05;4.65;;;;;;;;;;5043087;28;20115;-67
2023/06/26 05:35:15;;;;;;;6.97;5.55;;;;;;;;;;5036995;28;20480;-65
2023/06/26 05:37:42;;;;;;;8.95;7.35;;;;;;;;;;5036241;28;20511;-66
2023/06/26 05:40:09;;;;;;;7.30;6.60;;;;;;;;;;5057505;28;20032;-66
2023/06/26 05:42:35;;;;;;;8.82;7.60;;;;;;;;;;5045046;28;20030;-66
2023/06/26 05:45:00;;;;;;;7.97;7.03;;;;;;;;;;5046510;28;20058;-66
2023/06/26 05:47:26;;;;;;;7.07;5.20;;;;;;;;;;5035676;28;20021;-67
2023/06/26 05:49:51;;;;;;;8.32;6.10;;;;;;;;;;5050446;28;20499;-66
2023/06/26 05:52:17;;;;;;;9.32;7.43;;;;;;;;;;5054307;28;20549;-66
2023/06/26 05:54:42;;;;;;;7.63;5.40;;;;;;;;;;5038938;28;20033;-67
2023/06/26 05:57:09;;;;;;;8.40;6.22;;;;;;;;;;5042117;28;20017;-66
2023/06/26 05:59:39;;;;;;;8.93;6.55;;;;;;;;;;5043656;28;20396;-66
2023/06/26 06:02:04;;;;;;;7.75;5.55;;;;;;;;;;5044402;28;20194;-66
2023/06/26 06:04:30;;;;;;;9.50;6.18;;;;;;;;;;5048291;28;20052;-66
2023/06/26 06:06:55;;;;;;;8.82;6.32;;;;;;;;;;5040340;28;20373;-66
2023/06/26 06:09:20;;;;;;;9.70;7.28;;;;;;;;;;5041029;28;20021;-66
2023/06/26 06:11:46;;;;;;;10.30;7.82;;;;;;;;;;5046168;28;20029;-66
2023/06/26 06:14:11;;;;;;;7.65;6.03;;;;;;;;;;5051439;28;20408;-66
2023/06/26 06:16:37;;;;;;;8.38;5.55;;;;;;;;;;5048879;28;20036;-65
2023/06/26 06:19:03;;;;;;;8.60;6.50;;;;;;;;;;5053123;28;20020;-66
2023/06/26 06:21:28;;;;;;;7.28;5.28;;;;;;;;;;5025338;28;20025;-65
2023/06/26 06:23:54;;;;;;;8.02;6.65;;;;;;;;;;5055263;28;20021;-66
2023/06/26 06:26:19;;;;;;;9.38;6.55;;;;;;;;;;5042346;28;20112;-66
2023/06/26 06:28:44;;;;;;;8.60;6.95;;;;;;;;;;5023822;28;20029;-66
2023/06/26 06:31:10;;;;;;;8.95;6.88;;;;;;;;;;5039629;28;20029;-67
2023/06/26 06:33:35;;;;;;;7.53;5.82;;;;;;;;;;5042838;28;20024;-66
2023/06/26 06:36:00;;;;;;;8.15;6.65;;;;;;;;;;5050774;28;20546;-66
2023/06/26 06:38:26;;;;;;;7.95;5.38;;;;;;;;;;5035517;28;20032;-66
2023/06/26 06:40:51;;;;;;;7.30;5.88;;;;;;;;;;5023140;28;20082;-65
2023/06/26 06:43:16;;;;;;;8.60;5.70;;;;;;;;;;5042172;28;20044;-68
2023/06/26 06:45:42;;;;;;;8.63;5.57;;;;;;;;;;5034173;28;20058;-65
2023/06/26 06:48:07;;;;;;;6.63;5.22;;;;;;;;;;5037666;28;20025;-66
2023/06/26 06:50:33;;;;;;;6.72;4.70;;;;;;;;;;5034150;28;20631;-66
2023/06/26 06:52:58;;;;;;;6.78;5.72;;;;;;;;;;5039658;28;20029;-66
2023/06/26 06:55:25;;;;;;;9.43;5.88;;;;;;;;;;5040000;28;20056;-65
2023/06/26 06:57:51;;;;;;;7.90;5.72;;;;;;;;;;5022520;28;20029;-66
2023/06/26 07:00:17;;;;;;;9.20;6.15;;;;;;;;;;5043408;28;20032;-66
2023/06/26 07:02:44;;;;;;;7.95;5.47;;;;;;;;;;5039817;28;20018;-65
2023/06/26 07:05:10;;;;;;;4.63;3.53;;;;;;;;;;5048863;28;20097;-66
2023/06/26 07:07:37;;;;;;;8.70;5.40;;;;;;;;;;5036313;28;20022;-66
2023/06/26 07:10:08;;;;;;;10.10;6.35;;;;;;;;;;5040452;28;20392;-66
2023/06/26 07:12:35;;;;;;;7.50;5.47;;;;;;;;;;5056522;22;20054;-67
2023/06/26 07:15:02;;;;;;;8.10;4.30;;;;;;;;;;5046455;28;20033;-67
2023/06/26 07:17:27;;;;;;;7.53;6.03;;;;;;;;;;5040048;28;20029;-67
2023/06/26 07:19:53;;;;;;;6.85;5.60;;;;;;;;;;5041922;28;20075;-67
2023/06/26 07:22:21;;;;;;;9.27;5.40;;;;;;;;;;5044436;28;20017;-67
2023/06/26 07:24:49;;;;;;;11.70;6.35;;;;;;;;;;5032121;28;20568;-65
2023/06/26 07:27:18;;;;;;;8.02;6.07;;;;;;;;;;5015573;28;20056;-64
2023/06/26 07:29:44;;;;;;;5.07;4.40;;;;;;;;;;5025686;28;20391;-64
2023/06/26 07:32:10;;;;;;;12.23;6.20;;;;;;;;;;5030459;28;20029;-65
2023/06/26 07:34:35;;;;;;;8.57;5.70;;;;;;;;;;5035628;28;20022;-65
2023/06/26 07:37:01;;;;;;;6.22;5.50;;;;;;;;;;5016213;28;20021;-64
2023/06/26 07:39:26;;;;;;;8.63;5.78;;;;;;;;;;5029501;28;20496;-64
2023/06/26 07:41:52;;;;;;;6.82;5.10;;;;;;;;;;5008538;28;20091;-65
2023/06/26 07:44:17;;;;;;;18.30;6.40;;;;;;;;;;5035355;28;20124;-65
2023/06/26 07:46:44;;;;;;;7.60;4.60;;;;;;;;;;5030336;28;20480;-65
2023/06/26 07:49:09;;;;;;;7.28;5.45;;;;;;;;;;5031772;28;20022;-65
2023/06/26 07:51:35;;;;;;;5.40;4.47;;;;;;;;;;5025816;28;20443;-65
2023/06/26 07:54:00;;;;;;;9.05;4.80;;;;;;;;;;5029073;28;20020;-65
2023/06/26 07:56:26;;;;;;;5.30;3.78;;;;;;;;;;5036218;28;20029;-65
2023/06/26 07:58:51;;;;;;;10.07;5.15;;;;;;;;;;5030915;28;20513;-65
2023/06/26 08:01:17;;;;;;;5.63;4.40;;;;;;;;;;5027290;28;20034;-65
2023/06/26 08:03:42;;;;;;;8.13;5.15;;;;;;;;;;5023939;28;20079;-65
2023/06/26 08:06:07;;;;;;;6.97;5.03;;;;;;;;;;5030933;28;20025;-65
2023/06/26 08:08:33;;;;;;;5.55;4.57;;;;;;;;;;5028054;28;20024;-65
2023/06/26 08:10:58;;;;;;;7.38;4.38;;;;;;;;;;5034315;28;20104;-65
2023/06/26 08:13:24;;;;;;;5.63;4.18;;;;;;;;;;5023854;28;20030;-65
2023/06/26 08:15:50;;;;;;;4.18;2.80;;;;;;;;;;5026560;28;20033;-65
2023/06/26 08:18:15;;;;;;;4.82;3.95;;;;;;;;;;5026587;28;20396;-65
2023/06/26 08:20:40;;;;;;;5.57;4.05;;;;;;;;;;5030390;28;20112;-65
2023/06/26 08:23:06;;;;;;;5.78;4.32;;;;;;;;;;5024685;28;20037;-65
2023/06/26 08:25:32;;;;;;;5.45;4.28;;;;;;;;;;5022530;28;20100;-65
2023/06/26 08:27:57;;;;;;;5.22;3.35;;;;;;;;;;5025385;28;20060;-65
2023/06/26 08:30:27;;;;;;;5.03;4.32;;;;;;;;;;5026654;28;20025;-65
2023/06/26 08:32:53;;;;;;;5.45;4.30;;;;;;;;;;5028723;28;20084;-65
2023/06/26 08:35:18;;;;;;;5.45;4.63;;;;;;;;;;5029060;28;20033;-65
2023/06/26 08:37:43;;;;;;;7.00;4.80;;;;;;;;;;5030594;28;20029;-65
2023/06/26 08:40:10;;;;;;;6.30;4.72;;;;;;;;;;5031143;28;20545;-65
2023/06/26 08:42:35;;;;;;;4.88;4.10;;;;;;;;;;5033138;28;20662;-65
2023/06/26 08:45:01;;;;;;;7.75;4.20;;;;;;;;;;5015171;28;20032;-65
2023/06/26 08:47:27;;;;;;;6.25;4.57;;;;;;;;;;5026242;28;20474;-65
2023/06/26 08:50:06;;;;;;;5.40;4.22;;;;;;;;;;5031974;28;20021;-65
2023/06/26 08:52:45;;;;;;;5.10;4.27;;;;;;;;;;5033479;28;20697;-65
2023/06/26 08:55:15;;;;;;;5.15;4.47;;;;;;;;;;5031261;28;20537;-65
2023/06/26 08:57:40;;;;;;;6.07;3.35;;;;;;;;;;5028038;28;20018;-65
2023/06/26 09:00:08;;;;;;;4.60;3.33;;;;;;;;;;5030562;28;20033;-65
2023/06/26 09:02:35;;;;;;;6.78;4.70;;;;;;;;;;5030639;28;20037;-65
2023/06/26 09:05:01;;;;;;;3.50;2.67;;;;;;;;;;5032320;28;20382;-65
2023/06/26 09:07:27;;;;;;;4.45;3.35;;;;;;;;;;5009614;28;20032;-65
2023/06/26 09:09:52;;;;;;;5.63;4.45;;;;;;;;;;5028728;28;20018;-65
2023/06/26 09:12:19;;;;;;;5.60;4.65;;;;;;;;;;5035098;28;20116;-65
2023/06/26 09:14:44;;;;;;;6.03;4.10;;;;;;;;;;5031148;28;20037;-65
2023/06/26 09:17:09;;;;;;;5.10;4.40;;;;;;;;;;5029239;28;20040;-65
2023/06/26 09:19:38;;;;;;;6.10;4.13;;;;;;;;;;5026636;28;20035;-65
2023/06/26 09:22:03;;;;;;;3.20;2.25;;;;;;;;;;5030102;28;20028;-65
2023/06/26 09:24:30;;;;;;;5.95;4.65;;;;;;;;;;5035094;28;20460;-65
2023/06/26 09:26:55;;;;;;;6.10;4.55;;;;;;;;;;5028404;28;20031;-65
2023/06/26 09:29:21;;;;;;;5.13;4.53;;;;;;;;;;5026714;28;20017;-65
2023/06/26 09:31:47;;;;;;;6.57;4.22;;;;;;;;;;5032611;28;20397;-65
2023/06/26 09:34:12;;;;;;;5.35;4.50;;;;;;;;;;5035742;28;20029;-65
2023/06/26 09:36:38;;;;;;;3.70;3.03;;;;;;;;;;5033522;28;20025;-65
2023/06/26 09:39:08;;;;;;;5.32;4.05;;;;;;;;;;5037574;28;20166;-65
2023/06/26 09:41:35;;;;;;;4.60;3.88;;;;;;;;;;5030204;28;20025;-65
2023/06/26 09:44:07;;;;;;;6.07;4.38;;;;;;;;;;5030000;28;20480;-65
2023/06/26 09:46:33;;;;;;;8.15;4.47;;;;;;;;;;5032009;28;20473;-65
2023/06/26 09:49:05;;;;;;;8.32;4.40;;;;;;;;;;5032416;28;20029;-65
2023/06/26 09:51:32;;;;;;;4.93;4.28;;;;;;;;;;5029557;28;20672;-65
2023/06/26 09:53:58;;;;;;;6.32;4.57;;;;;;;;;;5025203;28;20040;-65
2023/06/26 09:56:24;;;;;;;5.35;4.22;;;;;;;;;;5036088;28;20111;-65
2023/06/26 09:58:49;;;;;;;5.95;4.70;;;;;;;;;;5039200;28;20588;-65
2023/06/26 10:01:15;;;;;;;6.03;4.40;;;;;;;;;;5030456;28;20037;-65
2023/06/26 10:03:40;;;;;;;5.78;4.47;;;;;;;;;;5035503;28;20021;-65
2023/06/26 10:06:08;;;;;;;4.95;4.40;;;;;;;;;;5028080;28;20048;-65
2023/06/26 10:08:36;;;;;;;5.97;4.93;;;;;;;;;;5026677;28;20499;-65
2023/06/26 10:11:01;;;;;;;5.45;4.38;;;;;;;;;;5034035;28;20079;-66
2023/06/26 10:13:34;;;;;;;5.13;4.63;;;;;;;;;;5027881;28;20037;-65
2023/06/26 10:16:01;;;;;;;4.75;4.25;;;;;;;;;;5025085;28;20032;-66
2023/06/26 10:18:28;;;;;;;5.32;4.82;;;;;;;;;;5027621;28;20108;-66
2023/06/26 10:20:57;;;;;;;5.28;4.32;;;;;;;;;;5024945;28;20087;-65
2023/06/26 10:23:25;;;;;;;4.63;4.15;;;;;;;;;;5026345;28;20184;-66
2023/06/26 10:25:55;;;;;;;5.60;4.93;;;;;;;;;;5027188;28;20089;-66
2023/06/26 10:28:22;;;;;;;6.45;4.13;;;;;;;;;;5022084;28;20025;-66
2023/06/26 10:30:50;;;;;;;6.25;4.13;;;;;;;;;;5027981;28;20033;-66
2023/06/26 10:33:16;;;;;;;5.00;4.30;;;;;;;;;;5034012;28;20404;-66
2023/06/26 10:35:45;;;;;;;6.13;3.38;;;;;;;;;;5029649;28;20029;-66
2023/06/26 10:38:10;;;;;;;5.15;4.15;;;;;;;;;;5027106;28;20031;-66
2023/06/26 10:40:48;;;;;;;5.07;4.57;;;;;;;;;;5030848;28;20393;-66
2023/06/26 10:43:14;;;;;;;7.03;4.85;;;;;;;;;;5030637;28;20501;-66
2023/06/26 10:45:52;;;;;;;6.07;4.88;;;;;;;;;;5027495;28;20032;-66
2023/06/26 10:48:17;;;;;;;5.40;4.68;;;;;;;;;;5025747;28;20075;-66
2023/06/26 10:50:43;;;;;;;5.32;4.18;;;;;;;;;;5035030;28;20028;-66
2023/06/26 10:53:24;;;;;;;6.30;4.43;;;;;;;;;;5029894;28;20029;-66
2023/06/26 10:56:01;;;;;;;5.25;4.75;;;;;;;;;;5031710;28;20026;-66
2023/06/26 10:58:30;;;;;;;5.88;5.25;;;;;;;;;;5024216;28;20021;-66
2023/06/26 11:01:10;;;;;;;5.40;4.90;;;;;;;;;;5025618;28;20116;-66
2023/06/26 11:03:37;;;;;;;5.75;5.15;;;;;;;;;;5029807;28;21236;-66
2023/06/26 11:06:20;;;;;;;5.53;5.03;;;;;;;;;;5031192;28;20028;-66
2023/06/26 11:08:48;;;;;;;6.15;4.90;;;;;;;;;;5024213;28;20025;-66
2023/06/26 11:11:14;;;;;;;5.35;4.82;;;;;;;;;;5028622;28;20045;-66
2023/06/26 11:13:41;;;;;;;5.72;4.88;;;;;;;;;;5030647;28;20896;-66
2023/06/26 11:16:06;;;;;;;6.88;5.38;;;;;;;;;;5022298;28;20055;-66
2023/06/26 11:18:32;;;;;;;6.28;4.97;;;;;;;;;;5027836;28;20494;-66
2023/06/26 11:21:08;;;;;;;5.75;5.20;;;;;;;;;;5027095;28;20029;-66
2023/06/26 11:23:36;;;;;;;5.10;4.60;;;;;;;;;;5025620;28;20819;-66
2023/06/26 11:26:37;;;;;;;5.32;4.60;;;;;;;;;;5032059;28;20029;-66
2023/06/26 11:29:02;;;;;;;5.07;4.47;;;;;;;;;;5022456;28;20037;-66
2023/06/26 11:31:30;;;;;;;5.90;5.13;;;;;;;;;;5025238;28;20079;-66
2023/06/26 11:33:58;;;;;;;5.65;5.07;;;;;;;;;;5034409;28;20048;-66
2023/06/26 11:36:25;;;;;;;6.15;5.40;;;;;;;;;;5031980;28;20025;-66
2023/06/26 11:38:58;;;;;;;6.28;5.35;;;;;;;;;;5028634;28;20037;-66
2023/06/26 11:41:26;;;;;;;5.28;4.68;;;;;;;;;;5024907;28;20029;-66
2023/06/26 11:43:55;;;;;;;6.70;5.35;;;;;;;;;;5026664;28;20072;-66
2023/06/26 11:46:21;;;;;;;8.90;5.70;;;;;;;;;;5031984;28;20686;-65
2023/06/26 11:48:48;;;;;;;6.63;5.57;;;;;;;;;;5026178;28;20485;-66
2023/06/26 11:51:16;;;;;;;5.53;4.90;;;;;;;;;;5027727;28;20064;-65
2023/06/26 11:53:43;;;;;;;8.70;5.55;;;;;;;;;;5026867;28;20033;-66
2023/06/26 11:56:10;;;;;;;8.55;5.72;;;;;;;;;;5009182;28;20703;-66
2023/06/26 11:58:36;;;;;;;7.13;5.75;;;;;;;;;;5029815;28;20060;-66
2023/06/26 12:01:02;;;;;;;7.10;5.78;;;;;;;;;;5029267;28;20033;-66
2023/06/26 12:03:29;;;;;;;8.93;5.55;;;;;;;;;;5027036;28;20477;-66
2023/06/26 12:05:55;;;;;;;9.88;5.97;;;;;;;;;;5023910;28;20037;-67
2023/06/26 12:08:20;;;;;;;8.77;5.35;;;;;;;;;;5030553;28;20751;-68
2023/06/26 12:10:46;;;;;;;9.85;6.15;;;;;;;;;;5031246;28;20385;-68
2023/06/26 12:13:11;;;;;;;9.25;6.35;;;;;;;;;;5032656;28;20025;-68
2023/06/26 12:15:37;;;;;;;7.88;6.07;;;;;;;;;;5030616;28;20456;-68
2023/06/26 12:18:09;;;;;;;7.65;6.82;;;;;;;;;;5032196;28;20033;-68
2023/06/26 12:20:40;;;;;;;9.27;6.07;;;;;;;;;;5033927;28;20747;-68
2023/06/26 12:23:12;;;;;;;8.25;6.90;;;;;;;;;;5031761;28;20681;-68
2023/06/26 12:25:37;;;;;;;8.60;5.95;;;;;;;;;;5035007;28;20017;-67
2023/06/26 12:28:03;;;;;;;6.97;6.28;;;;;;;;;;5016814;28;20036;-67
2023/06/26 12:30:28;;;;;;;9.52;6.43;;;;;;;;;;5036910;28;20537;-67
2023/06/26 12:32:54;;;;;;;7.60;6.32;;;;;;;;;;5035061;28;20025;-68
2023/06/26 12:35:19;;;;;;;7.03;5.95;;;;;;;;;;5033318;28;20072;-68
2023/06/26 12:37:45;;;;;;;7.60;6.47;;;;;;;;;;5031449;28;20040;-68
2023/06/26 12:40:19;;;;;;;7.57;6.07;;;;;;;;;;5020478;28;20089;-68
2023/06/26 12:42:45;;;;;;;7.10;5.80;;;;;;;;;;5030297;28;20430;-67
2023/06/26 12:45:12;;;;;;;7.05;5.88;;;;;;;;;;5036137;28;20469;-66
2023/06/26 12:47:38;;;;;;;8.63;6.57;;;;;;;;;;5027393;28;20032;-67
2023/06/26 12:50:06;;;;;;;7.82;6.25;;;;;;;;;;5031223;28;20025;-67
2023/06/26 12:52:31;;;;;;;8.40;6.43;;;;;;;;;;5035911;28;20040;-67
2023/06/26 12:54:57;;;;;;;6.90;6.20;;;;;;;;;;5033248;28;20038;-68
2023/06/26 12:57:23;;;;;;;8.25;6.63;;;;;;;;;;5035687;28;20017;-67
2023/06/26 12:59:48;;;;;;;8.35;6.43;;;;;;;;;;5029007;28;20025;-66
2023/06/26 13:02:14;;;;;;;8.85;7.68;;;;;;;;;;5033996;28;20025;-67
2023/06/26 13:04:41;;;;;;;9.23;7.45;;;;;;;;;;5037648;28;20390;-67
2023/06/26 13:07:07;;;;;;;8.52;7.47;;;;;;;;;;5032939;28;20026;-67
2023/06/26 13:09:34;;;;;;;8.52;7.63;;;;;;;;;;5028002;28;20033;-67
2023/06/26 13:12:00;;;;;;;10.75;7.95;;;;;;;;;;5029515;28;20025;-67
2023/06/26 13:14:25;;;;;;;9.32;7.50;;;;;;;;;;5063507;23;20035;-65
2023/06/26 13:16:51;;;;;;;9.60;7.88;;;;;;;;;;5057971;28;20026;-67
2023/06/26 13:19:16;;;;;;;10.55;8.20;;;;;;;;;;5059481;28;20029;-67
2023/06/26 13:21:42;;;;;;;10.52;8.60;;;;;;;;;;5055392;28;20032;-66
2023/06/26 13:24:07;;;;;;;9.38;8.38;;;;;;;;;;5060014;28;20035;-66
2023/06/26 13:26:33;;;;;;;9.43;8.50;;;;;;;;;;5070282;28;20034;-66
2023/06/26 13:28:59;;;;;;;9.60;8.63;;;;;;;;;;5066899;28;20036;-65
2023/06/26 13:31:24;;;;;;;9.77;8.75;;;;;;;;;;5060343;28;20044;-66
2023/06/26 13:33:50;;;;;;;9.52;8.52;;;;;;;;;;5055502;28;20048;-67
2023/06/26 13:36:16;;;;;;;9.95;8.70;;;;;;;;;;5061849;28;20052;-68
2023/06/26 13:38:41;;;;;;;12.93;8.60;;;;;;;;;;5062261;28;20147;-66
2023/06/26 13:41:07;;;;;;;9.82;8.63;;;;;;;;;;5062838;28;20074;-65
2023/06/26 13:43:32;;;;;;;9.57;8.68;;;;;;;;;;5051776;28;20032;-67
2023/06/26 13:45:58;;;;;;;12.43;8.75;;;;;;;;;;5051693;28;20043;-66
2023/06/26 13:48:26;;;;;;;11.00;9.18;;;;;;;;;;5058120;28;20105;-66
2023/06/26 13:50:52;;;;;;;9.90;8.85;;;;;;;;;;5060346;28;20039;-66
2023/06/26 13:53:18;;;;;;;9.82;8.80;;;;;;;;;;5057260;28;20082;-66
2023/06/26 13:55:43;;;;;;;10.00;8.48;;;;;;;;;;5061920;28;20374;-66
2023/06/26 13:58:11;;;;;;;10.27;8.70;;;;;;;;;;5060929;28;20029;-66
2023/06/26 14:00:36;;;;;;;11.15;8.45;;;;;;;;;;5063746;28;20037;-66
2023/06/26 14:03:09;;;;;;;9.48;8.38;;;;;;;;;;5061781;28;20080;-66
2023/06/26 14:05:36;;;;;;;9.65;8.23;;;;;;;;;;5059828;28;20059;-67
2023/06/26 14:08:07;;;;;;;9.77;6.88;;;;;;;;;;5059988;28;20485;-66
2023/06/26 14:10:33;;;;;;;7.88;6.80;;;;;;;;;;5058922;28;20078;-66
2023/06/26 14:12:59;;;;;;;9.40;7.55;;;;;;;;;;5057266;28;20027;-66
2023/06/26 14:15:25;;;;;;;9.85;7.50;;;;;;;;;;5060700;28;20435;-66
2023/06/26 14:17:51;;;;;;;9.68;7.68;;;;;;;;;;5057719;28;20037;-66
2023/06/26 14:20:16;;;;;;;8.35;6.95;;;;;;;;;;5063083;28;20023;-66
2023/06/26 14:22:46;;;;;;;9.35;7.53;;;;;;;;;;5062669;28;20474;-66
2023/06/26 14:25:12;;;;;;;8.23;6.95;;;;;;;;;;5057577;28;20503;-67
2023/06/26 14:27:38;;;;;;;9.48;7.00;;;;;;;;;;5056148;28;20191;-66
2023/06/26 14:30:05;;;;;;;8.10;6.97;;;;;;;;;;5038950;28;20024;-66
2023/06/26 14:32:30;;;;;;;8.05;7.25;;;;;;;;;;5053361;28;20036;-66
2023/06/26 14:34:56;;;;;;;8.45;6.95;;;;;;;;;;5059363;28;20059;-66
2023/06/26 14:37:24;;;;;;;8.45;7.05;;;;;;;;;;5057473;28;20059;-67
2023/06/26 14:39:49;;;;;;;6.97;6.28;;;;;;;;;;5058372;28;20029;-66